This is the latest recevied weather packets stored in our database for station/object N0QWM. If no packets are shown the sender has not sent any weather packets the latest 10 day(s).
| Time | Temp. | Humidity | Pressure | Rain* | Wind** | Luminosity | Snow |
|---|---|---|---|---|---|---|---|
| 1788544526 | 36.11° C | 54% | 1021.2 hPa | 0 mm | - | 700 W/m² | - |
| 1788544224 | 35.56° C | 55% | 1021.2 hPa | 0 mm | - | 664 W/m² | - |
| 1788543920 | 34.44° C | 57% | 1021.5 hPa | 0 mm | - | 668 W/m² | - |
| 1788543617 | 35° C | 57% | 1021.4 hPa | 0 mm | - | 264 W/m² | - |
| 1788543311 | 35° C | 57% | 1021.6 hPa | 0 mm | - | 193 W/m² | - |
| 1788543007 | 35° C | 55% | 1021.4 hPa | 0 mm | - | 732 W/m² | - |
| 1788542702 | 35° C | 57% | 1021.5 hPa | 0 mm | - | 706 W/m² | - |
| 1788542401 | 33.33° C | 59% | 1021.6 hPa | 0 mm | - | 187 W/m² | - |
| 1788542097 | 35° C | 58% | 1021.6 hPa | 0 mm | - | 198 W/m² | - |
| 1788541792 | 33.89° C | 59% | 1021.7 hPa | 0 mm | - | 708 W/m² | - |
| 1788541487 | 34.44° C | 58% | 1022 hPa | 0 mm | - | 725 W/m² | - |
| 1788541183 | 35° C | 58% | 1021.6 hPa | 0 mm | - | 177 W/m² | - |
| 1788540882 | 35.56° C | 56% | 1021.6 hPa | 0 mm | - | 243 W/m² | - |
| 1788540582 | 36.11° C | 54% | 1021.7 hPa | 0 mm | - | 304 W/m² | - |
| 1788540277 | 35.56° C | 55% | 1021.8 hPa | 0 mm | - | 674 W/m² | - |
| 1788539972 | 35.56° C | 57% | 1022 hPa | 0 mm | - | 668 W/m² | - |
| 1788539671 | 35.56° C | 57% | 1021.7 hPa | 0 mm | - | 682 W/m² | - |
| 1788539366 | 35.56° C | 56% | 1021.9 hPa | 0 mm | - | 708 W/m² | - |
| 1788539061 | 35° C | 57% | 1022.1 hPa | 0 mm | - | 672 W/m² | - |
| 1788538757 | 34.44° C | 57% | 1022.1 hPa | 0 mm | - | 644 W/m² | - |
| 1788538451 | 35° C | 55% | 1022.2 hPa | 0 mm | - | 652 W/m² | - |
| 1788538142 | 34.44° C | 56% | 1022.4 hPa | 0 mm | - | 653 W/m² | - |
| 1788537837 | 34.44° C | 56% | 1022.2 hPa | 0 mm | - | 557 W/m² | - |
| 1788537531 | 33.89° C | 60% | 1022.4 hPa | 0 mm | - | 671 W/m² | - |
| 1788537226 | 34.44° C | 59% | 1022.4 hPa | 0 mm | - | 665 W/m² | - |
* Rain latest hour (hover to see other rain measurements)
** Current wind speed in m/s (hover to see current wind gust speed)